Time;durP1;ratioP1;P1;durP2;ratioP2;P2;SDS_P1;SDS_P2;PMS_P1;PMS_P2;Temp;Humidity;BMP_temperature;BMP_pressure;BME280_temperature;BME280_humidity;BME280_pressure;Samples;Min_cycle;Max_cycle;Signal;HPM_P1;HPM_P2
2022/04/08 00:00:16;;;;;;;7.40;1.63;;;;;;;17.66;56.05;100502.03;2074356;28;20045;-74
2022/04/08 00:01:38;;;;;;;12.88;1.77;;;;;;;17.64;55.88;100493.19;2077930;28;20045;-74
2022/04/08 00:03:01;;;;;;;11.00;1.08;;;;;;;17.64;55.78;100503.00;2063561;28;20164;-74
2022/04/08 00:04:25;;;;;;;11.32;2.05;;;;;;;17.66;55.42;100511.84;2067149;28;20069;-75
2022/04/08 00:05:48;;;;;;;10.43;1.38;;;;;;;17.63;55.26;100485.22;2069358;28;20041;-75
2022/04/08 00:07:10;;;;;;;10.80;1.85;;;;;;;17.65;55.03;100473.59;2079400;28;20077;-74
2022/04/08 00:08:32;;;;;;;15.23;1.63;;;;;;;17.62;54.86;100468.31;2080684;28;20559;-74
2022/04/08 00:09:55;;;;;;;11.20;1.77;;;;;;;17.59;54.82;100470.97;2071913;28;20068;-74
2022/04/08 00:11:19;;;;;;;10.60;2.15;;;;;;;17.55;54.68;100471.94;2077025;28;20215;-75
2022/04/08 00:12:41;;;;;;;12.15;1.95;;;;;;;17.52;54.66;100475.53;2075072;28;20099;-74
2022/04/08 00:14:04;;;;;;;13.25;2.65;;;;;;;17.51;54.62;100472.94;2068652;28;20477;-74
2022/04/08 00:15:27;;;;;;;9.57;2.08;;;;;;;17.50;54.50;100461.38;2068874;28;20056;-75
2022/04/08 00:16:49;;;;;;;9.55;1.27;;;;;;;17.48;54.39;100464.97;2070743;28;20057;-75
2022/04/08 00:18:11;;;;;;;10.90;1.42;;;;;;;17.45;54.29;100465.03;2069197;28;20712;-74
2022/04/08 00:19:36;;;;;;;11.77;1.40;;;;;;;17.44;54.05;100474.81;2068937;28;20056;-74
2022/04/08 00:20:59;;;;;;;13.35;1.52;;;;;;;17.46;53.81;100478.31;2082247;28;20052;-74
2022/04/08 00:22:23;;;;;;;11.38;1.70;;;;;;;17.46;53.64;100489.00;2080057;28;20042;-74
2022/04/08 00:23:47;;;;;;;9.70;1.40;;;;;;;17.46;53.39;100496.13;2087147;28;20037;-74
2022/04/08 00:25:10;;;;;;;9.10;0.95;;;;;;;17.43;53.53;100504.19;2087897;28;20073;-74
2022/04/08 00:26:33;;;;;;;9.20;1.35;;;;;;;17.36;53.61;100503.41;2066167;28;20490;-74
2022/04/08 00:27:55;;;;;;;11.32;1.33;;;;;;;17.30;53.80;100506.19;2064655;28;20037;-74
2022/04/08 00:29:18;;;;;;;9.73;0.90;;;;;;;17.24;53.94;100500.06;2066684;28;20550;-74
2022/04/08 00:30:40;;;;;;;6.95;1.15;;;;;;;17.28;53.52;100488.44;2076502;28;20406;-74
2022/04/08 00:32:03;;;;;;;9.50;1.65;;;;;;;17.36;53.19;100500.75;2074578;28;20099;-74
2022/04/08 00:33:24;;;;;;;12.25;2.05;;;;;;;17.44;52.83;100514.84;2076435;28;20041;-74
2022/04/08 00:34:48;;;;;;;4.55;0.88;;;;;;;17.51;52.50;100523.63;2077408;28;20049;-74
2022/04/08 00:36:10;;;;;;;11.63;1.52;;;;;;;17.53;52.29;100525.34;2076602;28;20135;-74
2022/04/08 00:37:33;;;;;;;10.20;1.15;;;;;;;17.54;52.14;100524.47;2071049;28;20084;-74
2022/04/08 00:38:55;;;;;;;6.18;0.90;;;;;;;17.53;51.99;100517.34;2074801;28;20426;-74
2022/04/08 00:40:17;;;;;;;9.35;1.70;;;;;;;17.53;51.99;100517.34;2071733;28;20049;-74
2022/04/08 00:41:40;;;;;;;12.98;1.33;;;;;;;17.50;52.02;100514.75;2071880;28;20054;-74
2022/04/08 00:43:11;;;;;;;1.98;0.77;;;;;;;17.50;52.02;100505.84;2068823;28;20049;-75
2022/04/08 00:44:34;;;;;;;7.40;1.27;;;;;;;17.47;51.78;100512.13;2075088;28;20151;-74
2022/04/08 00:45:55;;;;;;;9.07;1.05;;;;;;;17.46;51.84;100510.34;2077367;28;20045;-74
2022/04/08 00:47:17;;;;;;;14.10;1.33;;;;;;;17.46;51.88;100515.69;2077279;28;20599;-74
2022/04/08 00:48:39;;;;;;;7.47;1.15;;;;;;;17.46;51.82;100510.34;2077097;28;20413;-74
2022/04/08 00:50:03;;;;;;;12.50;1.27;;;;;;;17.47;51.85;100506.78;2060915;28;20466;-74
2022/04/08 00:51:26;;;;;;;7.38;1.38;;;;;;;17.45;51.87;100503.28;2075000;28;20443;-74
2022/04/08 00:52:49;;;;;;;6.75;0.80;;;;;;;17.43;51.94;100507.75;2069209;28;20054;-74
2022/04/08 00:54:11;;;;;;;7.28;1.17;;;;;;;17.42;52.04;100503.31;2074137;28;20057;-74
2022/04/08 00:55:33;;;;;;;3.97;1.17;;;;;;;17.40;51.96;100505.13;2085455;28;20044;-74
2022/04/08 00:56:56;;;;;;;8.02;0.85;;;;;;;17.39;52.12;100507.84;2082368;28;20122;-74
2022/04/08 00:58:19;;;;;;;10.05;1.75;;;;;;;17.36;52.08;100498.09;2077565;28;20049;-74
2022/04/08 00:59:42;;;;;;;5.07;0.60;;;;;;;17.35;52.20;100501.66;2079892;28;20054;-74
2022/04/08 01:01:05;;;;;;;7.63;0.93;;;;;;;17.35;52.17;100512.31;2070303;28;20441;-74
2022/04/08 01:02:29;;;;;;;5.32;1.58;;;;;;;17.36;52.10;100502.53;2068752;28;20053;-74
2022/04/08 01:03:52;;;;;;;7.00;0.95;;;;;;;17.34;52.13;100510.56;2077489;28;20090;-74
2022/04/08 01:05:15;;;;;;;9.68;0.95;;;;;;;17.35;52.04;100504.31;2076897;28;20049;-75
2022/04/08 01:06:38;;;;;;;7.78;1.45;;;;;;;17.35;52.03;100520.31;2069172;28;20084;-74
2022/04/08 01:08:02;;;;;;;6.53;0.95;;;;;;;17.35;51.97;100517.66;2082586;28;20429;-74
2022/04/08 01:09:24;;;;;;;7.75;1.48;;;;;;;17.35;51.96;100522.13;2073763;28;20056;-74
2022/04/08 01:10:49;;;;;;;7.95;2.58;;;;;;;17.34;51.93;100523.91;2066796;28;20129;-74
2022/04/08 01:12:10;;;;;;;8.13;1.45;;;;;;;17.33;51.97;100519.47;2076531;28;20054;-74
2022/04/08 01:13:33;;;;;;;7.03;1.20;;;;;;;17.32;51.99;100516.84;2076725;28;20063;-74
2022/04/08 01:14:58;;;;;;;4.32;1.08;;;;;;;17.31;52.00;100510.63;2060873;28;20111;-73
2022/04/08 01:16:20;;;;;;;6.72;1.38;;;;;;;17.28;52.09;100502.66;2067271;28;20058;-74
2022/04/08 01:17:43;;;;;;;7.05;0.88;;;;;;;17.25;52.07;100512.50;2072372;28;20514;-74
2022/04/08 01:19:06;;;;;;;8.75;1.17;;;;;;;17.24;52.17;100516.06;2077201;28;20057;-74
2022/04/08 01:20:29;;;;;;;11.13;1.17;;;;;;;17.24;52.23;100524.06;2073368;28;20099;-74
2022/04/08 01:21:52;;;;;;;5.95;2.00;;;;;;;17.21;52.20;100527.66;2084961;28;20268;-74
2022/04/08 01:23:18;;;;;;;5.25;1.77;;;;;;;17.18;52.19;100519.72;2077136;28;20050;-74
2022/04/08 01:24:42;;;;;;;7.25;1.20;;;;;;;17.18;52.29;100508.16;2077535;28;20597;-74
2022/04/08 01:26:07;;;;;;;7.72;0.80;;;;;;;17.16;52.32;100517.97;2077549;28;20113;-74
2022/04/08 01:27:30;;;;;;;9.65;1.00;;;;;;;17.15;52.26;100509.09;2079694;28;20386;-74
2022/04/08 01:28:52;;;;;;;;;;;;;;;17.15;51.93;100514.41;2069174;28;20053;-74
2022/04/08 01:30:16;;;;;;;5.93;0.88;;;;;;;17.09;52.33;100520.72;2073946;28;20018;-74
2022/04/08 01:31:43;;;;;;;9.00;1.58;;;;;;;17.09;52.39;100519.84;2069224;28;20054;-74
2022/04/08 01:33:06;;;;;;;4.80;0.80;;;;;;;17.05;52.37;100513.69;2065587;28;20045;-74
2022/04/08 01:34:29;;;;;;;6.05;0.93;;;;;;;17.04;52.42;100519.03;2074854;28;20734;-74
2022/04/08 01:35:52;;;;;;;5.47;0.70;;;;;;;17.05;52.34;100520.81;2076859;28;20243;-74
2022/04/08 01:37:14;;;;;;;7.07;1.13;;;;;;;17.07;52.25;100533.19;2068856;28;20457;-74
2022/04/08 01:38:36;;;;;;;6.22;1.00;;;;;;;17.11;52.18;100528.72;2069207;28;20077;-74
2022/04/08 01:39:58;;;;;;;8.40;1.63;;;;;;;17.13;52.01;100526.91;2070599;28;20386;-74
2022/04/08 01:41:22;;;;;;;5.25;0.80;;;;;;;17.14;51.90;100526.00;2062609;28;20134;-74
2022/04/08 01:42:44;;;;;;;6.75;1.25;;;;;;;17.12;51.87;100511.81;2073446;28;20081;-74
2022/04/08 01:44:07;;;;;;;4.38;0.73;;;;;;;17.16;51.70;100542.88;2085450;28;20053;-74
2022/04/08 01:45:30;;;;;;;3.88;0.95;;;;;;;17.18;51.62;100522.38;2077613;28;20956;-74
2022/04/08 01:46:51;;;;;;;4.22;0.88;;;;;;;17.24;51.45;100526.75;2079479;28;20162;-74
2022/04/08 01:48:14;;;;;;;4.68;0.70;;;;;;;17.28;51.37;100533.78;2076609;28;20046;-74
2022/04/08 01:49:37;;;;;;;7.38;0.85;;;;;;;17.30;51.35;100540.00;2076491;28;20060;-74
2022/04/08 01:50:59;;;;;;;9.35;0.82;;;;;;;17.31;51.36;100536.41;2071719;28;20621;-74
2022/04/08 01:52:22;;;;;;;7.25;0.98;;;;;;;17.32;51.22;100535.53;2063690;28;20565;-74
2022/04/08 01:53:45;;;;;;;6.72;0.90;;;;;;;17.33;51.13;100529.25;2063464;28;20046;-75
2022/04/08 01:55:08;;;;;;;4.38;1.05;;;;;;;17.35;51.07;100535.44;2066535;28;20465;-74
2022/04/08 01:56:32;;;;;;;4.43;0.93;;;;;;;17.36;51.05;100543.44;2075221;28;20045;-74
2022/04/08 01:57:54;;;;;;;7.93;1.10;;;;;;;17.34;51.00;100553.25;2069741;28;20082;-74
2022/04/08 01:59:16;;;;;;;7.57;0.85;;;;;;;17.34;50.99;100539.91;2067894;28;20077;-74
2022/04/08 02:00:39;;;;;;;2.53;0.75;;;;;;;17.31;50.95;100542.63;2075131;28;20044;-74
2022/04/08 02:02:02;;;;;;;7.63;1.67;;;;;;;17.29;50.99;100532.88;2069599;28;20045;-74
2022/04/08 02:03:25;;;;;;;4.45;0.88;;;;;;;17.29;50.91;100560.44;2067896;28;20057;-74
2022/04/08 02:04:48;;;;;;;7.53;1.25;;;;;;;17.29;50.89;100563.13;2084584;28;20159;-74
2022/04/08 02:06:11;;;;;;;5.35;1.83;;;;;;;17.27;50.84;100550.69;2075179;28;20540;-73
2022/04/08 02:07:33;;;;;;;6.65;1.10;;;;;;;17.26;50.79;100549.84;2074867;28;20057;-74
2022/04/08 02:08:57;;;;;;;8.93;1.63;;;;;;;17.25;50.81;100544.53;2078389;28;20551;-74
2022/04/08 02:10:19;;;;;;;7.35;1.33;;;;;;;17.24;50.77;100529.41;2080753;28;20057;-74
2022/04/08 02:11:43;;;;;;;5.55;0.73;;;;;;;17.20;51.04;100525.91;2078232;28;20060;-74
2022/04/08 02:13:06;;;;;;;4.63;1.13;;;;;;;17.13;51.05;100526.91;2076504;28;20045;-74
2022/04/08 02:14:28;;;;;;;7.53;1.17;;;;;;;17.08;51.09;100534.97;2078523;28;20060;-74
2022/04/08 02:15:50;;;;;;;3.38;0.77;;;;;;;17.06;51.15;100539.47;2072887;28;20054;-74
2022/04/08 02:17:11;;;;;;;7.47;1.20;;;;;;;17.07;51.14;100542.97;2080175;28;20053;-74
2022/04/08 02:18:33;;;;;;;7.55;2.20;;;;;;;17.05;51.05;100542.16;2077608;28;20057;-74
2022/04/08 02:19:56;;;;;;;5.28;0.98;;;;;;;17.05;51.07;100535.03;2086020;28;20068;-73
2022/04/08 02:21:19;;;;;;;5.25;0.73;;;;;;;17.06;51.02;100541.25;2075485;28;20543;-74
2022/04/08 02:22:40;;;;;;;4.18;0.85;;;;;;;17.07;51.07;100532.31;2077638;28;20057;-74
2022/04/08 02:24:04;;;;;;;7.38;1.20;;;;;;;17.07;50.91;100529.66;2079411;28;20059;-74
2022/04/08 02:25:28;;;;;;;3.65;0.50;;;;;;;17.05;50.88;100534.16;2078384;28;20152;-74
2022/04/08 02:26:52;;;;;;;5.70;0.90;;;;;;;17.07;50.88;100542.97;2061399;28;20112;-74
2022/04/08 02:28:14;;;;;;;4.25;0.80;;;;;;;17.06;50.91;100550.13;2074123;28;20073;-74
2022/04/08 02:29:37;;;;;;;3.60;0.73;;;;;;;17.05;50.87;100543.03;2078306;28;20045;-74
2022/04/08 02:30:59;;;;;;;7.10;1.30;;;;;;;17.04;50.86;100548.38;2078306;28;20061;-74
2022/04/08 02:32:21;;;;;;;5.18;0.80;;;;;;;17.03;50.81;100557.28;2077198;28;20049;-74
2022/04/08 02:33:43;;;;;;;6.45;0.80;;;;;;;17.04;50.76;100561.72;2067213;28;20050;-74
2022/04/08 02:35:05;;;;;;;4.38;0.70;;;;;;;17.04;50.63;100570.59;2066716;28;20050;-74
2022/04/08 02:36:27;;;;;;;;;;;;;;;17.04;50.72;100567.94;2062676;28;20146;-74
2022/04/08 02:37:50;;;;;;;5.43;0.90;;;;;;;17.01;50.61;100561.75;2070092;28;19921;-74
2022/04/08 02:39:12;;;;;;;4.00;0.55;;;;;;;16.99;50.64;100567.13;2083454;28;20053;-74
2022/04/08 02:40:35;;;;;;;3.42;0.52;;;;;;;17.00;50.56;100568.00;2080305;28;20042;-74
2022/04/08 02:42:00;;;;;;;5.88;1.10;;;;;;;17.02;50.44;100559.06;2077285;28;20054;-75
2022/04/08 02:43:22;;;;;;;3.92;0.85;;;;;;;17.02;50.11;100558.19;2075942;28;20068;-73
2022/04/08 02:44:44;;;;;;;6.15;0.60;;;;;;;17.06;50.03;100562.59;2077478;28;20136;-74
2022/04/08 02:46:06;;;;;;;5.60;0.82;;;;;;;17.07;49.96;100581.22;2077299;28;20107;-74
2022/04/08 02:47:28;;;;;;;3.95;0.57;;;;;;;17.08;50.05;100577.66;2078135;28;20053;-74
2022/04/08 02:48:50;;;;;;;6.57;0.80;;;;;;;17.09;50.02;100568.75;2078408;28;20053;-74
2022/04/08 02:50:13;;;;;;;2.80;0.77;;;;;;;17.10;50.17;100574.97;2079297;28;20057;-74
2022/04/08 02:51:35;;;;;;;7.57;0.73;;;;;;;17.08;50.25;100572.31;2070285;28;20081;-74
2022/04/08 02:52:58;;;;;;;7.47;0.80;;;;;;;17.10;50.29;100586.53;2074654;28;20042;-74
2022/04/08 02:54:19;;;;;;;5.68;0.52;;;;;;;17.11;50.35;100592.75;2076727;28;20052;-74
2022/04/08 02:55:42;;;;;;;8.23;1.27;;;;;;;17.12;50.39;100592.72;2078176;28;20049;-74
2022/04/08 02:57:06;;;;;;;4.18;0.80;;;;;;;17.13;50.49;100594.47;2077758;28;20045;-74
2022/04/08 02:58:28;;;;;;;2.00;0.43;;;;;;;17.10;50.72;100590.97;2077509;28;20046;-74
2022/04/08 02:59:53;;;;;;;6.47;0.82;;;;;;;17.07;50.60;100596.34;2080467;28;20437;-74
2022/04/08 03:01:15;;;;;;;4.20;0.60;;;;;;;17.07;50.78;100583.00;2077209;28;20041;-74
2022/04/08 03:02:38;;;;;;;8.45;0.75;;;;;;;17.05;50.78;100599.03;2069907;28;20120;-74
2022/04/08 03:04:01;;;;;;;7.68;0.95;;;;;;;17.03;50.92;100599.97;2076483;28;20133;-74
2022/04/08 03:05:23;;;;;;;2.95;0.60;;;;;;;17.04;50.95;100609.72;2078711;28;20099;-74
2022/04/08 03:06:45;;;;;;;28.33;2.22;;;;;;;17.04;50.90;100605.28;2076515;28;20076;-74
2022/04/08 03:08:08;;;;;;;6.20;0.90;;;;;;;17.06;50.94;100599.94;2080971;28;20116;-74
2022/04/08 03:09:31;;;;;;;5.18;0.77;;;;;;;17.08;50.95;100606.09;2061757;28;20078;-75
2022/04/08 03:10:54;;;;;;;5.32;0.98;;;;;;;17.06;50.86;100600.81;2075499;28;20135;-74
2022/04/08 03:12:18;;;;;;;6.50;0.70;;;;;;;17.06;50.93;100591.94;2061834;28;20454;-74
2022/04/08 03:13:41;;;;;;;3.35;0.90;;;;;;;17.07;50.84;100591.88;2068618;28;20084;-74
2022/04/08 03:15:05;;;;;;;6.93;0.88;;;;;;;17.07;50.94;100591.00;2074218;28;20053;-74
2022/04/08 03:16:28;;;;;;;4.85;0.75;;;;;;;17.02;51.05;100583.06;2070060;28;20042;-74
2022/04/08 03:17:51;;;;;;;6.97;1.17;;;;;;;16.97;51.30;100595.59;2074867;28;20094;-74
2022/04/08 03:19:12;;;;;;;6.55;0.85;;;;;;;16.93;51.39;100596.53;2079625;28;20152;-74
2022/04/08 03:20:35;;;;;;;3.92;0.88;;;;;;;16.89;51.59;100601.91;2069411;28;20100;-74
2022/04/08 03:21:57;;;;;;;11.02;1.05;;;;;;;16.85;51.76;100608.19;2075127;28;20608;-74
2022/04/08 03:23:20;;;;;;;2.38;0.55;;;;;;;16.83;51.88;100607.31;2075096;28;20075;-74
2022/04/08 03:24:41;;;;;;;4.28;0.75;;;;;;;16.81;51.96;100598.44;2075319;28;20045;-74
2022/04/08 03:26:04;;;;;;;8.65;0.80;;;;;;;16.77;52.24;100607.41;2078432;28;20061;-74
2022/04/08 03:27:27;;;;;;;6.78;0.90;;;;;;;16.78;52.24;100619.84;2075158;28;20394;-74
2022/04/08 03:28:50;;;;;;;5.85;0.80;;;;;;;16.78;52.18;100635.84;2078084;28;20056;-74
2022/04/08 03:30:13;;;;;;;3.92;0.63;;;;;;;16.81;52.18;100647.34;2076870;28;20103;-74
2022/04/08 03:31:35;;;;;;;7.75;1.02;;;;;;;16.82;51.91;100633.09;2077952;28;20076;-73
2022/04/08 03:32:58;;;;;;;3.40;0.60;;;;;;;16.84;51.91;100641.97;2071192;28;20038;-74
2022/04/08 03:34:20;;;;;;;2.67;0.70;;;;;;;16.85;51.80;100643.75;2073312;28;20053;-74
2022/04/08 03:35:42;;;;;;;7.15;1.17;;;;;;;16.86;51.86;100650.84;2076314;28;20127;-74
2022/04/08 03:37:06;;;;;;;4.55;0.80;;;;;;;16.86;51.88;100657.97;2069393;28;20556;-74
2022/04/08 03:38:28;;;;;;;8.95;0.88;;;;;;;16.83;51.87;100669.53;2082741;28;20045;-74
2022/04/08 03:39:51;;;;;;;9.02;1.17;;;;;;;16.81;51.96;100665.09;2080389;28;20442;-74
2022/04/08 03:41:13;;;;;;;7.65;1.50;;;;;;;16.79;52.03;100662.47;2080539;28;20128;-74
2022/04/08 03:42:38;;;;;;;8.57;1.23;;;;;;;16.78;52.07;100666.03;2076908;28;20046;-74
2022/04/08 03:44:00;;;;;;;5.00;0.90;;;;;;;16.79;51.96;100662.47;2066481;28;20037;-74
2022/04/08 03:45:24;;;;;;;4.97;1.20;;;;;;;16.80;51.97;100668.69;2075900;28;20057;-74
2022/04/08 03:46:47;;;;;;;4.60;1.20;;;;;;;16.79;51.98;100666.94;2078345;28;20053;-74
2022/04/08 03:48:10;;;;;;;7.88;1.38;;;;;;;16.80;51.87;100679.38;2069529;28;20080;-74
2022/04/08 03:49:35;;;;;;;9.32;1.15;;;;;;;16.79;51.92;100680.25;2074415;28;20049;-74
2022/04/08 03:50:57;;;;;;;4.68;0.73;;;;;;;16.77;51.86;100666.94;2072846;28;20489;-74
2022/04/08 03:52:20;;;;;;;4.32;1.17;;;;;;;16.76;51.91;100666.94;2077831;28;20121;-74
2022/04/08 03:53:42;;;;;;;9.00;1.50;;;;;;;16.76;51.83;100659.84;2078243;28;20057;-74
2022/04/08 03:55:06;;;;;;;8.10;1.70;;;;;;;16.77;51.82;100666.94;2077071;28;20041;-74
2022/04/08 03:56:28;;;;;;;8.13;1.17;;;;;;;16.76;51.82;100659.84;2085807;28;20106;-74
2022/04/08 03:57:52;;;;;;;8.05;1.10;;;;;;;16.78;51.94;100665.16;2080329;28;20080;-74
2022/04/08 03:59:14;;;;;;;9.02;1.67;;;;;;;16.75;51.98;100639.41;2079452;28;20079;-74
2022/04/08 04:00:36;;;;;;;6.97;1.45;;;;;;;16.75;52.03;100631.41;2066153;28;20065;-74
2022/04/08 04:02:01;;;;;;;8.38;1.95;;;;;;;16.73;52.05;100634.13;2062282;28;20092;-74
2022/04/08 04:03:23;;;;;;;10.40;1.30;;;;;;;16.72;52.12;100632.34;2062838;28;20050;-74
2022/04/08 04:04:45;;;;;;;6.63;1.10;;;;;;;16.72;52.15;100620.81;2074458;28;20076;-74
2022/04/08 04:06:08;;;;;;;4.47;1.33;;;;;;;16.72;52.13;100621.69;2082102;28;20186;-74
2022/04/08 04:07:30;;;;;;;5.38;0.82;;;;;;;16.74;52.09;100625.19;2088029;28;20040;-74
2022/04/08 04:08:52;;;;;;;5.68;1.25;;;;;;;16.74;52.17;100624.31;2087170;28;20049;-74
2022/04/08 04:10:15;;;;;;;9.38;1.33;;;;;;;16.75;52.18;100642.06;2071652;28;20142;-74
2022/04/08 04:11:36;;;;;;;6.78;1.00;;;;;;;16.79;52.16;100640.28;2069275;28;20046;-74
2022/04/08 04:13:00;;;;;;;4.35;1.00;;;;;;;16.83;52.25;100623.31;2068603;28;20046;-74
2022/04/08 04:14:21;;;;;;;8.63;1.85;;;;;;;16.83;52.10;100634.88;2083382;28;20045;-74
2022/04/08 04:15:44;;;;;;;5.70;0.90;;;;;;;16.86;52.25;100626.84;2079197;28;20057;-74
2022/04/08 04:17:07;;;;;;;7.70;1.20;;;;;;;16.92;52.16;100639.22;2077324;28;20084;-74
2022/04/08 04:18:30;;;;;;;4.55;1.10;;;;;;;16.96;52.04;100640.94;2067392;28;20511;-74
2022/04/08 04:19:53;;;;;;;4.00;0.88;;;;;;;17.00;51.99;100638.19;2064281;28;20053;-74
2022/04/08 04:21:15;;;;;;;6.07;1.10;;;;;;;17.06;51.85;100648.81;2082455;28;20106;-74
2022/04/08 04:22:38;;;;;;;7.25;1.10;;;;;;;17.14;51.88;100646.03;2080019;28;20041;-74
2022/04/08 04:23:59;;;;;;;8.27;1.60;;;;;;;17.19;51.78;100652.22;2074291;28;20056;-74
2022/04/08 04:25:22;;;;;;;6.60;1.00;;;;;;;17.26;51.73;100661.91;2073667;28;20797;-74
2022/04/08 04:26:43;;;;;;;4.55;1.17;;;;;;;17.32;51.74;100669.81;2075030;28;20405;-73
2022/04/08 04:28:08;;;;;;;9.85;1.15;;;;;;;17.40;51.70;100664.34;2078642;28;20043;-73
2022/04/08 04:29:29;;;;;;;11.50;1.55;;;;;;;17.47;51.65;100674.03;2078212;28;20057;-73
2022/04/08 04:30:53;;;;;;;10.10;1.15;;;;;;;17.53;51.59;100684.63;2076412;28;20669;-73
2022/04/08 04:32:17;;;;;;;8.32;1.27;;;;;;;17.62;51.56;100697.00;2074024;28;20085;-73
2022/04/08 04:33:38;;;;;;;8.55;1.33;;;;;;;17.72;51.59;100696.00;2079133;28;20049;-74
2022/04/08 04:35:06;;;;;;;5.40;0.93;;;;;;;17.82;51.49;100692.25;2077230;28;20078;-74
2022/04/08 04:36:28;;;;;;;9.57;1.35;;;;;;;17.91;51.42;100690.34;2073505;28;20417;-74
2022/04/08 04:37:51;;;;;;;5.57;1.50;;;;;;;17.99;51.40;100687.53;2081694;28;20052;-74
2022/04/08 04:39:14;;;;;;;5.93;0.93;;;;;;;18.06;51.12;100704.34;2071572;28;20467;-74
2022/04/08 04:40:36;;;;;;;7.10;1.70;;;;;;;18.10;50.76;100703.41;2077190;28;20052;-74
2022/04/08 04:41:58;;;;;;;7.70;1.15;;;;;;;18.18;50.77;100709.50;2085492;28;20037;-74
2022/04/08 04:43:22;;;;;;;11.18;1.67;;;;;;;18.30;50.58;100710.19;2078890;28;20054;-74
2022/04/08 04:44:45;;;;;;;4.38;1.25;;;;;;;18.42;50.51;100710.88;2077108;28;20103;-73
2022/04/08 04:46:07;;;;;;;10.95;2.70;;;;;;;18.54;50.23;100705.31;2076064;28;20049;-74
2022/04/08 04:47:30;;;;;;;8.82;1.50;;;;;;;18.63;49.87;100718.56;2075344;28;20099;-74
2022/04/08 04:48:51;;;;;;;5.55;1.55;;;;;;;18.69;49.70;100719.34;2079606;28;20115;-74
2022/04/08 04:50:14;;;;;;;7.85;2.28;;;;;;;18.78;49.81;100715.59;2068906;28;20049;-74
2022/04/08 04:51:35;;;;;;;11.18;1.90;;;;;;;18.89;49.69;100710.94;2068968;28;20082;-74
2022/04/08 04:52:58;;;;;;;15.05;2.92;;;;;;;18.93;49.32;100701.91;2069271;28;20140;-74
2022/04/08 04:54:21;;;;;;;8.30;1.88;;;;;;;18.96;49.44;100701.00;2077583;28;20049;-74
2022/04/08 04:55:43;;;;;;;7.53;1.50;;;;;;;19.00;49.30;100683.97;2055392;28;20090;-74
2022/04/08 04:57:05;;;;;;;6.78;1.65;;;;;;;19.05;49.22;100684.75;2074753;28;20068;-74
2022/04/08 04:58:29;;;;;;;6.30;1.27;;;;;;;19.12;49.23;100681.03;2076813;28;20048;-74
2022/04/08 04:59:50;;;;;;;4.63;1.23;;;;;;;19.14;48.86;100673.84;2082712;28;20080;-73
2022/04/08 05:01:12;;;;;;;6.82;1.45;;;;;;;19.20;48.73;100672.84;2076170;28;20413;-74
2022/04/08 05:02:35;;;;;;;18.00;2.70;;;;;;;19.20;48.56;100683.53;2077293;28;20053;-74
2022/04/08 05:03:58;;;;;;;9.13;2.00;;;;;;;19.23;48.60;100699.56;2068978;28;20053;-74
2022/04/08 05:05:20;;;;;;;6.50;1.52;;;;;;;19.31;48.51;100698.47;2074906;28;20116;-74
2022/04/08 05:06:43;;;;;;;8.50;1.50;;;;;;;19.38;48.30;100700.09;2084640;28;20052;-74
2022/04/08 05:08:07;;;;;;;9.50;1.90;;;;;;;19.47;48.28;100699.94;2079546;28;20056;-74
2022/04/08 05:09:29;;;;;;;9.48;1.70;;;;;;;19.56;48.39;100704.19;2069140;28;20096;-74
2022/04/08 05:10:52;;;;;;;9.40;2.88;;;;;;;19.71;48.40;100703.84;2066162;28;20045;-74
2022/04/08 05:12:14;;;;;;;6.20;1.17;;;;;;;19.80;47.98;100702.78;2066416;28;20084;-74
2022/04/08 05:13:38;;;;;;;4.53;1.17;;;;;;;19.90;48.00;100691.78;2073513;28;20081;-73
2022/04/08 05:15:00;;;;;;;10.60;2.45;;;;;;;19.98;47.76;100683.56;2067586;28;20145;-74
2022/04/08 05:16:22;;;;;;;4.78;1.40;;;;;;;20.09;47.74;100705.63;2068213;28;20208;-74
2022/04/08 05:17:45;;;;;;;8.57;1.98;;;;;;;20.20;47.46;100697.34;2074656;28;20045;-74
2022/04/08 05:19:08;;;;;;;6.40;1.38;;;;;;;20.31;47.42;100697.94;2077400;28;20077;-74
2022/04/08 05:20:30;;;;;;;9.85;2.40;;;;;;;20.43;47.29;100696.78;2078781;28;20505;-74
2022/04/08 05:21:54;;;;;;;9.63;1.75;;;;;;;20.55;46.90;100708.06;2078749;28;20421;-75
2022/04/08 05:23:16;;;;;;;6.38;1.10;;;;;;;20.64;46.58;100699.78;2076233;28;20095;-74
2022/04/08 05:24:38;;;;;;;6.82;1.52;;;;;;;20.75;46.14;100696.81;2071065;28;20073;-73
2022/04/08 05:26:02;;;;;;;7.95;1.80;;;;;;;20.80;45.95;100708.31;2077157;28;20041;-74
2022/04/08 05:27:24;;;;;;;7.30;2.00;;;;;;;20.88;45.75;100724.19;2079455;28;20460;-75
2022/04/08 05:28:48;;;;;;;5.53;1.33;;;;;;;20.97;45.00;100724.81;2076795;28;20087;-74
2022/04/08 05:30:13;;;;;;;11.32;2.10;;;;;;;21.01;45.13;100730.97;2078841;28;20046;-74
2022/04/08 05:31:35;;;;;;;7.88;1.50;;;;;;;21.04;44.87;100725.53;2072299;28;20042;-74
2022/04/08 05:32:58;;;;;;;8.20;1.55;;;;;;;21.11;44.83;100745.03;2068970;28;20391;-74
2022/04/08 05:34:20;;;;;;;5.13;1.30;;;;;;;21.18;44.79;100741.28;2073650;28;20046;-74
2022/04/08 05:35:43;;;;;;;6.45;1.48;;;;;;;21.28;44.42;100735.59;2075324;28;20510;-74
2022/04/08 05:37:07;;;;;;;8.32;1.65;;;;;;;21.35;44.28;100720.19;2082468;28;20041;-74
2022/04/08 05:38:29;;;;;;;10.57;1.60;;;;;;;21.40;43.92;100707.50;2077801;28;20053;-74
2022/04/08 05:39:53;;;;;;;5.85;1.65;;;;;;;21.45;43.73;100717.22;2078461;28;20387;-74
2022/04/08 05:41:16;;;;;;;6.90;1.67;;;;;;;21.50;43.71;100724.22;2077613;28;20037;-75
2022/04/08 05:42:40;;;;;;;9.82;1.38;;;;;;;21.64;43.56;100725.59;2085350;28;20495;-74
2022/04/08 05:44:04;;;;;;;5.30;1.05;;;;;;;21.78;43.28;100726.03;2083125;28;20152;-75
2022/04/08 05:45:26;;;;;;;7.72;1.38;;;;;;;21.93;43.35;100734.53;2077808;28;20094;-74
2022/04/08 05:46:49;;;;;;;5.72;2.00;;;;;;;22.08;43.20;100737.66;2087169;28;20057;-75
2022/04/08 05:48:11;;;;;;;6.07;1.33;;;;;;;22.17;42.66;100728.44;2071929;28;20042;-75
2022/04/08 05:49:34;;;;;;;5.05;1.30;;;;;;;22.23;42.70;100741.66;2075824;28;20076;-74
2022/04/08 05:50:56;;;;;;;8.73;1.88;;;;;;;22.43;42.74;100751.78;2078601;28;20053;-75
2022/04/08 05:52:18;;;;;;;8.90;1.90;;;;;;;22.72;42.27;100745.38;2080874;28;20462;-74
2022/04/08 05:53:40;;;;;;;21.88;2.88;;;;;;;22.96;41.80;100763.44;2077660;28;20150;-74
2022/04/08 05:55:03;;;;;;;10.18;2.30;;;;;;;23.14;41.38;100765.47;2077410;28;20536;-74
2022/04/08 05:56:26;;;;;;;10.52;2.90;;;;;;;23.32;41.24;100766.59;2072831;28;20564;-74
2022/04/08 05:57:49;;;;;;;8.05;1.80;;;;;;;23.47;41.03;100762.47;2070431;28;20510;-75
2022/04/08 05:59:13;;;;;;;13.95;3.25;;;;;;;23.55;40.65;100761.28;2070543;28;20454;-74
2022/04/08 06:00:35;;;;;;;13.57;2.60;;;;;;;23.56;40.29;100772.94;2072960;28;20474;-75
2022/04/08 06:01:58;;;;;;;8.77;2.58;;;;;;;23.54;40.48;100791.84;2079007;28;20586;-75
2022/04/08 06:03:20;;;;;;;7.82;1.27;;;;;;;23.61;40.39;100790.69;2079396;28;20152;-75
2022/04/08 06:04:43;;;;;;;7.95;1.75;;;;;;;23.74;40.21;100786.59;2070335;28;20688;-74
2022/04/08 06:06:06;;;;;;;7.75;1.50;;;;;;;23.85;39.94;100794.25;2067373;28;20083;-75
2022/04/08 06:07:27;;;;;;;9.02;1.52;;;;;;;24.02;39.86;100791.81;2067620;28;20100;-74
2022/04/08 06:08:49;;;;;;;9.05;1.98;;;;;;;24.13;39.30;100800.34;2074786;28;20042;-76
2022/04/08 06:10:11;;;;;;;7.00;1.83;;;;;;;24.15;39.14;100795.78;2077646;28;20532;-74
2022/04/08 06:11:34;;;;;;;8.93;2.55;;;;;;;24.22;39.21;100800.00;2086602;28;20083;-75
2022/04/08 06:12:58;;;;;;;11.48;2.45;;;;;;;24.29;38.75;100788.94;2089265;28;20045;-74
2022/04/08 06:14:22;;;;;;;8.88;2.08;;;;;;;24.15;38.70;100808.38;2072207;28;20050;-75
2022/04/08 06:15:44;;;;;;;9.82;1.85;;;;;;;24.02;39.08;100809.81;2075245;28;20447;-75
2022/04/08 06:17:07;;;;;;;14.25;2.17;;;;;;;23.86;39.12;100784.34;2070344;28;20069;-75
2022/04/08 06:18:29;;;;;;;4.53;1.00;;;;;;;23.84;39.22;100784.41;2075346;28;20524;-74
2022/04/08 06:19:51;;;;;;;9.18;1.70;;;;;;;23.75;39.20;100792.88;2078210;28;20053;-75
2022/04/08 06:21:14;;;;;;;11.15;1.85;;;;;;;23.76;39.14;100806.25;2077512;28;21672;-74
2022/04/08 06:22:38;;;;;;;8.43;2.38;;;;;;;23.78;39.03;100820.56;2072907;28;20088;-75
2022/04/08 06:24:01;;;;;;;17.02;4.07;;;;;;;23.82;39.29;100829.44;2070503;28;20107;-75